sensor_id;sensor_type;location;lat;lon;timestamp;pressure;altitude;pressure_sealevel;temperature;humidity
55271;BME280;41132;47.162;9.470;2023-08-06T00:01:11;96015.56;;;15.22;100.00
55271;BME280;41132;47.162;9.470;2023-08-06T00:03:37;96009.66;;;15.20;100.00
55271;BME280;41132;47.162;9.470;2023-08-06T00:06:04;96024.16;;;15.31;100.00
55271;BME280;41132;47.162;9.470;2023-08-06T00:08:30;96010.50;;;15.28;100.00
55271;BME280;41132;47.162;9.470;2023-08-06T00:10:55;96015.16;;;15.25;100.00
55271;BME280;41132;47.162;9.470;2023-08-06T00:13:21;96018.22;;;15.22;100.00
55271;BME280;41132;47.162;9.470;2023-08-06T00:15:46;96013.91;;;15.21;100.00
55271;BME280;41132;47.162;9.470;2023-08-06T00:18:11;96015.13;;;15.19;100.00
55271;BME280;41132;47.162;9.470;2023-08-06T00:20:40;96009.84;;;15.19;100.00
55271;BME280;41132;47.162;9.470;2023-08-06T00:23:06;95988.03;;;15.03;100.00
55271;BME280;41132;47.162;9.470;2023-08-06T00:25:32;96005.78;;;15.16;100.00
55271;BME280;41132;47.162;9.470;2023-08-06T00:27:57;96008.00;;;15.13;100.00
55271;BME280;41132;47.162;9.470;2023-08-06T00:30:22;96004.34;;;15.14;100.00
55271;BME280;41132;47.162;9.470;2023-08-06T00:32:48;95999.66;;;15.16;100.00
55271;BME280;41132;47.162;9.470;2023-08-06T00:35:14;95986.25;;;15.11;100.00
55271;BME280;41132;47.162;9.470;2023-08-06T00:37:39;95981.28;;;15.01;100.00
55271;BME280;41132;47.162;9.470;2023-08-06T00:40:06;95973.94;;;14.90;100.00
55271;BME280;41132;47.162;9.470;2023-08-06T00:42:32;95976.28;;;14.78;100.00
55271;BME280;41132;47.162;9.470;2023-08-06T00:44:57;95988.56;;;14.86;100.00
55271;BME280;41132;47.162;9.470;2023-08-06T00:47:23;95983.75;;;15.02;100.00
55271;BME280;41132;47.162;9.470;2023-08-06T00:49:48;95980.47;;;15.00;100.00
55271;BME280;41132;47.162;9.470;2023-08-06T00:52:14;95993.69;;;15.00;100.00
55271;BME280;41132;47.162;9.470;2023-08-06T00:54:40;95986.38;;;15.02;100.00
55271;BME280;41132;47.162;9.470;2023-08-06T00:57:06;95996.56;;;15.06;100.00
55271;BME280;41132;47.162;9.470;2023-08-06T00:59:32;95961.91;;;14.87;100.00
55271;BME280;41132;47.162;9.470;2023-08-06T01:01:58;95986.56;;;15.01;100.00
55271;BME280;41132;47.162;9.470;2023-08-06T01:04:23;96004.69;;;15.04;100.00
55271;BME280;41132;47.162;9.470;2023-08-06T01:07:07;96008.16;;;15.04;100.00
55271;BME280;41132;47.162;9.470;2023-08-06T01:09:45;96000.84;;;15.07;100.00
55271;BME280;41132;47.162;9.470;2023-08-06T01:12:45;95991.59;;;15.24;100.00
55271;BME280;41132;47.162;9.470;2023-08-06T01:15:28;95987.47;;;15.15;100.00
55271;BME280;41132;47.162;9.470;2023-08-06T01:17:54;95978.34;;;15.17;100.00
55271;BME280;41132;47.162;9.470;2023-08-06T01:20:19;95976.69;;;15.16;100.00
55271;BME280;41132;47.162;9.470;2023-08-06T01:22:45;95977.50;;;15.17;100.00
55271;BME280;41132;47.162;9.470;2023-08-06T01:25:14;95992.19;;;15.19;100.00
55271;BME280;41132;47.162;9.470;2023-08-06T01:27:50;95986.78;;;14.99;100.00
55271;BME280;41132;47.162;9.470;2023-08-06T01:30:26;95968.97;;;15.21;100.00
55271;BME280;41132;47.162;9.470;2023-08-06T01:32:57;95975.28;;;15.20;100.00
55271;BME280;41132;47.162;9.470;2023-08-06T01:35:25;95956.72;;;15.07;100.00
55271;BME280;41132;47.162;9.470;2023-08-06T01:37:52;95955.09;;;14.99;100.00
55271;BME280;41132;47.162;9.470;2023-08-06T01:40:17;95938.56;;;14.91;100.00
55271;BME280;41132;47.162;9.470;2023-08-06T01:42:43;95937.59;;;14.98;100.00
55271;BME280;41132;47.162;9.470;2023-08-06T01:45:08;95942.56;;;15.15;100.00
55271;BME280;41132;47.162;9.470;2023-08-06T01:47:34;95944.72;;;15.04;100.00
55271;BME280;41132;47.162;9.470;2023-08-06T01:50:00;95941.81;;;14.86;100.00
55271;BME280;41132;47.162;9.470;2023-08-06T01:52:26;95943.25;;;14.89;100.00
55271;BME280;41132;47.162;9.470;2023-08-06T01:54:51;95937.19;;;14.95;100.00
55271;BME280;41132;47.162;9.470;2023-08-06T01:57:17;95913.75;;;14.85;100.00
55271;BME280;41132;47.162;9.470;2023-08-06T01:59:42;95932.66;;;14.89;100.00
55271;BME280;41132;47.162;9.470;2023-08-06T02:02:07;95916.78;;;14.82;100.00
55271;BME280;41132;47.162;9.470;2023-08-06T02:04:33;95920.19;;;14.76;100.00
55271;BME280;41132;47.162;9.470;2023-08-06T02:06:58;95933.41;;;14.76;100.00
55271;BME280;41132;47.162;9.470;2023-08-06T02:09:23;95931.53;;;14.63;100.00
55271;BME280;41132;47.162;9.470;2023-08-06T02:11:49;95933.19;;;14.71;100.00
55271;BME280;41132;47.162;9.470;2023-08-06T02:14:14;95927.50;;;14.67;100.00
55271;BME280;41132;47.162;9.470;2023-08-06T02:16:40;95921.47;;;14.52;100.00
55271;BME280;41132;47.162;9.470;2023-08-06T02:19:05;95949.56;;;14.59;100.00
55271;BME280;41132;47.162;9.470;2023-08-06T02:21:30;95928.03;;;14.56;100.00
55271;BME280;41132;47.162;9.470;2023-08-06T02:23:56;95927.28;;;14.69;100.00
55271;BME280;41132;47.162;9.470;2023-08-06T02:26:21;95914.19;;;14.54;100.00
55271;BME280;41132;47.162;9.470;2023-08-06T02:28:47;95926.41;;;14.55;100.00
55271;BME280;41132;47.162;9.470;2023-08-06T02:31:12;95929.75;;;14.42;100.00
55271;BME280;41132;47.162;9.470;2023-08-06T02:33:37;95930.22;;;14.52;100.00
55271;BME280;41132;47.162;9.470;2023-08-06T02:36:03;95925.41;;;14.56;100.00
55271;BME280;41132;47.162;9.470;2023-08-06T02:38:30;95928.38;;;14.53;100.00
55271;BME280;41132;47.162;9.470;2023-08-06T02:40:55;95931.69;;;14.55;100.00
55271;BME280;41132;47.162;9.470;2023-08-06T02:43:21;95943.56;;;14.44;100.00
55271;BME280;41132;47.162;9.470;2023-08-06T02:45:46;95947.03;;;14.45;100.00
55271;BME280;41132;47.162;9.470;2023-08-06T02:48:11;95911.03;;;14.37;100.00
55271;BME280;41132;47.162;9.470;2023-08-06T02:50:41;95935.03;;;14.42;100.00
55271;BME280;41132;47.162;9.470;2023-08-06T02:53:09;95930.34;;;14.44;100.00
55271;BME280;41132;47.162;9.470;2023-08-06T02:55:34;95923.41;;;14.36;100.00
55271;BME280;41132;47.162;9.470;2023-08-06T02:58:01;95911.59;;;14.32;100.00
55271;BME280;41132;47.162;9.470;2023-08-06T03:00:27;95896.56;;;14.33;100.00
55271;BME280;41132;47.162;9.470;2023-08-06T03:02:52;95895.84;;;14.46;100.00
55271;BME280;41132;47.162;9.470;2023-08-06T03:05:18;95899.22;;;14.33;100.00
55271;BME280;41132;47.162;9.470;2023-08-06T03:07:43;95880.25;;;14.16;100.00
55271;BME280;41132;47.162;9.470;2023-08-06T03:10:09;95904.25;;;14.28;100.00
55271;BME280;41132;47.162;9.470;2023-08-06T03:12:34;95893.66;;;14.21;100.00
55271;BME280;41132;47.162;9.470;2023-08-06T03:15:00;95883.72;;;14.23;100.00
55271;BME280;41132;47.162;9.470;2023-08-06T03:17:25;95890.41;;;14.19;100.00
55271;BME280;41132;47.162;9.470;2023-08-06T03:19:50;95884.53;;;14.24;100.00
55271;BME280;41132;47.162;9.470;2023-08-06T03:22:16;95896.03;;;14.09;100.00
55271;BME280;41132;47.162;9.470;2023-08-06T03:24:41;95896.47;;;14.13;100.00
55271;BME280;41132;47.162;9.470;2023-08-06T03:27:06;95888.78;;;14.18;100.00
55271;BME280;41132;47.162;9.470;2023-08-06T03:29:32;95888.34;;;14.14;100.00
55271;BME280;41132;47.162;9.470;2023-08-06T03:31:57;95883.09;;;14.21;100.00
55271;BME280;41132;47.162;9.470;2023-08-06T03:34:23;95873.28;;;14.08;100.00
55271;BME280;41132;47.162;9.470;2023-08-06T03:36:48;95884.59;;;14.02;100.00
55271;BME280;41132;47.162;9.470;2023-08-06T03:39:13;95892.81;;;14.14;100.00
55271;BME280;41132;47.162;9.470;2023-08-06T03:41:39;95891.56;;;14.10;100.00
55271;BME280;41132;47.162;9.470;2023-08-06T03:44:05;95889.97;;;14.15;100.00
55271;BME280;41132;47.162;9.470;2023-08-06T03:46:30;95890.03;;;14.22;100.00
55271;BME280;41132;47.162;9.470;2023-08-06T03:48:59;95875.03;;;14.29;100.00
55271;BME280;41132;47.162;9.470;2023-08-06T03:51:24;95889.81;;;14.24;100.00
55271;BME280;41132;47.162;9.470;2023-08-06T03:53:50;95894.63;;;14.13;100.00
55271;BME280;41132;47.162;9.470;2023-08-06T03:56:15;95898.25;;;14.06;100.00
55271;BME280;41132;47.162;9.470;2023-08-06T03:58:40;95883.50;;;14.18;100.00
55271;BME280;41132;47.162;9.470;2023-08-06T04:01:06;95864.81;;;14.13;100.00
55271;BME280;41132;47.162;9.470;2023-08-06T04:03:31;95878.34;;;14.10;100.00
55271;BME280;41132;47.162;9.470;2023-08-06T04:05:57;95874.25;;;14.00;100.00
55271;BME280;41132;47.162;9.470;2023-08-06T04:08:22;95860.94;;;13.87;100.00
55271;BME280;41132;47.162;9.470;2023-08-06T04:10:54;95883.00;;;14.08;100.00
55271;BME280;41132;47.162;9.470;2023-08-06T04:13:19;95907.72;;;14.00;100.00
55271;BME280;41132;47.162;9.470;2023-08-06T04:15:45;95884.47;;;14.10;100.00
55271;BME280;41132;47.162;9.470;2023-08-06T04:18:11;95872.56;;;13.93;100.00
55271;BME280;41132;47.162;9.470;2023-08-06T04:20:46;95883.41;;;14.05;100.00
55271;BME280;41132;47.162;9.470;2023-08-06T04:23:12;95878.75;;;14.07;100.00
55271;BME280;41132;47.162;9.470;2023-08-06T04:25:37;95874.00;;;13.95;100.00
55271;BME280;41132;47.162;9.470;2023-08-06T04:28:03;95881.34;;;14.00;100.00
55271;BME280;41132;47.162;9.470;2023-08-06T04:30:28;95868.34;;;13.98;100.00
55271;BME280;41132;47.162;9.470;2023-08-06T04:32:54;95876.41;;;13.90;100.00
55271;BME280;41132;47.162;9.470;2023-08-06T04:35:19;95876.41;;;13.90;100.00
55271;BME280;41132;47.162;9.470;2023-08-06T04:37:44;95870.34;;;13.96;100.00
55271;BME280;41132;47.162;9.470;2023-08-06T04:40:10;95866.91;;;13.96;100.00
55271;BME280;41132;47.162;9.470;2023-08-06T04:42:35;95865.06;;;13.96;100.00
55271;BME280;41132;47.162;9.470;2023-08-06T04:45:02;95871.75;;;13.92;100.00
55271;BME280;41132;47.162;9.470;2023-08-06T04:47:27;95880.03;;;13.89;100.00
55271;BME280;41132;47.162;9.470;2023-08-06T04:49:53;95892.22;;;13.90;100.00
55271;BME280;41132;47.162;9.470;2023-08-06T04:52:18;95868.78;;;13.74;100.00
55271;BME280;41132;47.162;9.470;2023-08-06T04:54:43;95882.44;;;13.84;100.00
55271;BME280;41132;47.162;9.470;2023-08-06T04:57:09;95878.25;;;13.90;100.00
55271;BME280;41132;47.162;9.470;2023-08-06T04:59:35;95891.28;;;13.98;100.00
55271;BME280;41132;47.162;9.470;2023-08-06T05:02:00;95897.56;;;13.97;100.00
55271;BME280;41132;47.162;9.470;2023-08-06T05:04:25;95880.91;;;13.96;100.00
55271;BME280;41132;47.162;9.470;2023-08-06T05:06:51;95881.13;;;13.95;100.00
55271;BME280;41132;47.162;9.470;2023-08-06T05:09:16;95893.97;;;14.05;100.00
55271;BME280;41132;47.162;9.470;2023-08-06T05:11:41;95896.47;;;14.13;100.00
55271;BME280;41132;47.162;9.470;2023-08-06T05:14:07;95895.72;;;14.26;100.00
55271;BME280;41132;47.162;9.470;2023-08-06T05:16:32;95905.88;;;14.22;100.00
55271;BME280;41132;47.162;9.470;2023-08-06T05:18:57;95905.47;;;14.25;100.00
55271;BME280;41132;47.162;9.470;2023-08-06T05:21:23;95903.44;;;14.27;100.00
55271;BME280;41132;47.162;9.470;2023-08-06T05:23:48;95902.19;;;14.23;100.00
55271;BME280;41132;47.162;9.470;2023-08-06T05:26:14;95898.00;;;14.29;100.00
55271;BME280;41132;47.162;9.470;2023-08-06T05:28:41;95883.72;;;14.23;100.00
55271;BME280;41132;47.162;9.470;2023-08-06T05:31:06;95892.75;;;14.35;100.00
55271;BME280;41132;47.162;9.470;2023-08-06T05:33:32;95896.19;;;14.36;100.00
55271;BME280;41132;47.162;9.470;2023-08-06T05:35:57;95899.03;;;14.34;100.00
55271;BME280;41132;47.162;9.470;2023-08-06T05:38:23;95904.53;;;14.39;100.00
55271;BME280;41132;47.162;9.470;2023-08-06T05:40:48;95908.69;;;14.20;100.00
55271;BME280;41132;47.162;9.470;2023-08-06T05:43:14;95908.16;;;14.32;100.00
55271;BME280;41132;47.162;9.470;2023-08-06T05:45:39;95912.00;;;14.29;100.00
55271;BME280;41132;47.162;9.470;2023-08-06T05:48:09;95921.84;;;14.42;100.00
55271;BME280;41132;47.162;9.470;2023-08-06T05:50:34;95910.06;;;14.45;100.00
55271;BME280;41132;47.162;9.470;2023-08-06T05:52:59;95918.69;;;14.60;100.00
55271;BME280;41132;47.162;9.470;2023-08-06T05:55:25;95932.22;;;14.50;100.00
55271;BME280;41132;47.162;9.470;2023-08-06T05:57:50;95926.75;;;14.52;100.00
55271;BME280;41132;47.162;9.470;2023-08-06T06:00:17;95930.16;;;14.46;100.00
55271;BME280;41132;47.162;9.470;2023-08-06T06:02:43;95915.25;;;14.59;100.00
55271;BME280;41132;47.162;9.470;2023-08-06T06:05:09;95912.38;;;14.54;100.00
55271;BME280;41132;47.162;9.470;2023-08-06T06:07:34;95923.09;;;14.53;100.00
55271;BME280;41132;47.162;9.470;2023-08-06T06:10:00;95936.00;;;14.63;100.00
55271;BME280;41132;47.162;9.470;2023-08-06T06:12:25;95921.19;;;14.68;100.00
55271;BME280;41132;47.162;9.470;2023-08-06T06:14:51;95921.66;;;14.50;100.00
55271;BME280;41132;47.162;9.470;2023-08-06T06:17:16;95904.63;;;14.53;100.00
55271;BME280;41132;47.162;9.470;2023-08-06T06:19:42;95929.13;;;14.68;100.00
55271;BME280;41132;47.162;9.470;2023-08-06T06:22:07;95923.03;;;14.68;100.00
55271;BME280;41132;47.162;9.470;2023-08-06T06:24:33;95910.81;;;14.67;100.00
55271;BME280;41132;47.162;9.470;2023-08-06T06:26:58;95906.38;;;14.67;100.00
55271;BME280;41132;47.162;9.470;2023-08-06T06:29:24;95907.41;;;14.73;100.00
55271;BME280;41132;47.162;9.470;2023-08-06T06:31:49;95895.22;;;14.72;100.00
55271;BME280;41132;47.162;9.470;2023-08-06T06:34:14;95923.28;;;14.79;100.00
55271;BME280;41132;47.162;9.470;2023-08-06T06:36:40;95935.88;;;14.77;100.00
55271;BME280;41132;47.162;9.470;2023-08-06T06:39:05;95955.78;;;14.80;100.00
55271;BME280;41132;47.162;9.470;2023-08-06T06:41:30;95963.31;;;14.76;100.00
55271;BME280;41132;47.162;9.470;2023-08-06T06:43:58;95954.50;;;14.69;100.00
55271;BME280;41132;47.162;9.470;2023-08-06T06:46:23;95964.28;;;14.75;100.00
55271;BME280;41132;47.162;9.470;2023-08-06T06:48:48;95968.53;;;14.70;100.00
55271;BME280;41132;47.162;9.470;2023-08-06T06:51:14;95975.25;;;14.72;100.00
55271;BME280;41132;47.162;9.470;2023-08-06T06:53:39;95974.91;;;14.82;100.00
55271;BME280;41132;47.162;9.470;2023-08-06T06:56:05;95985.47;;;14.82;100.00
55271;BME280;41132;47.162;9.470;2023-08-06T06:58:32;95985.09;;;14.92;100.00
55271;BME280;41132;47.162;9.470;2023-08-06T07:00:57;95982.25;;;14.87;100.00
55271;BME280;41132;47.162;9.470;2023-08-06T07:03:23;95980.16;;;14.75;100.00
55271;BME280;41132;47.162;9.470;2023-08-06T07:05:49;95987.53;;;14.87;100.00
55271;BME280;41132;47.162;9.470;2023-08-06T07:08:15;95987.72;;;14.85;100.00
55271;BME280;41132;47.162;9.470;2023-08-06T07:10:41;95986.75;;;14.93;100.00
55271;BME280;41132;47.162;9.470;2023-08-06T07:13:07;95985.50;;;14.89;100.00
55271;BME280;41132;47.162;9.470;2023-08-06T07:15:33;95994.69;;;14.93;100.00
55271;BME280;41132;47.162;9.470;2023-08-06T07:17:58;96003.00;;;14.90;100.00
55271;BME280;41132;47.162;9.470;2023-08-06T07:20:23;96004.88;;;15.02;100.00
55271;BME280;41132;47.162;9.470;2023-08-06T07:22:49;95990.91;;;15.09;100.00
55271;BME280;41132;47.162;9.470;2023-08-06T07:25:16;95992.34;;;15.11;100.00
55271;BME280;41132;47.162;9.470;2023-08-06T07:27:41;96003.94;;;15.10;100.00
55271;BME280;41132;47.162;9.470;2023-08-06T07:30:07;95986.00;;;15.06;100.00
55271;BME280;41132;47.162;9.470;2023-08-06T07:32:33;95989.47;;;15.06;100.00
55271;BME280;41132;47.162;9.470;2023-08-06T07:34:58;96003.34;;;15.21;100.00
55271;BME280;41132;47.162;9.470;2023-08-06T07:37:26;96003.13;;;15.16;100.00
55271;BME280;41132;47.162;9.470;2023-08-06T07:39:54;95989.13;;;15.22;100.00
55271;BME280;41132;47.162;9.470;2023-08-06T07:42:19;95997.69;;;15.24;100.00
55271;BME280;41132;47.162;9.470;2023-08-06T07:44:51;95986.69;;;15.28;100.00
55271;BME280;41132;47.162;9.470;2023-08-06T07:47:17;95985.72;;;15.29;100.00
55271;BME280;41132;47.162;9.470;2023-08-06T07:49:42;96001.59;;;15.35;100.00
55271;BME280;41132;47.162;9.470;2023-08-06T07:52:07;95985.50;;;15.37;100.00
55271;BME280;41132;47.162;9.470;2023-08-06T07:54:33;95988.63;;;15.54;100.00
55271;BME280;41132;47.162;9.470;2023-08-06T07:56:58;95995.16;;;15.51;100.00
55271;BME280;41132;47.162;9.470;2023-08-06T07:59:23;95992.28;;;15.53;100.00
55271;BME280;41132;47.162;9.470;2023-08-06T08:01:49;95962.09;;;15.27;100.00
55271;BME280;41132;47.162;9.470;2023-08-06T08:04:14;95976.00;;;15.49;100.00
55271;BME280;41132;47.162;9.470;2023-08-06T08:06:39;95979.81;;;15.95;100.00
55271;BME280;41132;47.162;9.470;2023-08-06T08:09:05;95980.19;;;15.92;100.00
55271;BME280;41132;47.162;9.470;2023-08-06T08:11:30;95976.31;;;15.74;100.00
55271;BME280;41132;47.162;9.470;2023-08-06T08:13:56;95975.91;;;15.84;100.00
55271;BME280;41132;47.162;9.470;2023-08-06T08:16:21;95972.66;;;15.89;100.00
55271;BME280;41132;47.162;9.470;2023-08-06T08:18:46;95990.00;;;16.51;100.00
55271;BME280;41132;47.162;9.470;2023-08-06T08:21:12;95974.91;;;16.65;100.00
55271;BME280;41132;47.162;9.470;2023-08-06T08:23:37;95980.16;;;16.85;100.00
55271;BME280;41132;47.162;9.470;2023-08-06T08:26:04;95966.31;;;16.76;100.00
55271;BME280;41132;47.162;9.470;2023-08-06T08:28:30;95982.00;;;16.64;100.00
55271;BME280;41132;47.162;9.470;2023-08-06T08:30:55;95987.72;;;16.61;100.00
55271;BME280;41132;47.162;9.470;2023-08-06T08:33:21;95982.00;;;16.71;100.00
55271;BME280;41132;47.162;9.470;2023-08-06T08:35:47;95994.25;;;16.79;100.00
55271;BME280;41132;47.162;9.470;2023-08-06T08:38:12;95990.72;;;17.05;100.00
55271;BME280;41132;47.162;9.470;2023-08-06T08:40:44;95990.38;;;16.88;100.00
55271;BME280;41132;47.162;9.470;2023-08-06T08:43:13;95992.22;;;16.81;100.00
55271;BME280;41132;47.162;9.470;2023-08-06T08:45:39;95993.22;;;16.73;100.00
55271;BME280;41132;47.162;9.470;2023-08-06T08:48:05;95983.47;;;16.40;100.00
55271;BME280;41132;47.162;9.470;2023-08-06T08:50:32;95998.94;;;16.50;100.00
55271;BME280;41132;47.162;9.470;2023-08-06T08:52:57;96012.19;;;16.43;100.00
55271;BME280;41132;47.162;9.470;2023-08-06T08:55:23;96022.38;;;16.53;100.00
55271;BME280;41132;47.162;9.470;2023-08-06T08:57:48;96017.91;;;16.54;100.00
55271;BME280;41132;47.162;9.470;2023-08-06T09:00:14;96043.16;;;16.56;100.00
55271;BME280;41132;47.162;9.470;2023-08-06T09:02:40;96037.25;;;16.47;100.00
55271;BME280;41132;47.162;9.470;2023-08-06T09:05:07;96039.69;;;16.29;100.00
55271;BME280;41132;47.162;9.470;2023-08-06T09:07:48;96040.72;;;16.15;100.00
55271;BME280;41132;47.162;9.470;2023-08-06T09:10:16;96061.69;;;16.23;100.00
55271;BME280;41132;47.162;9.470;2023-08-06T09:12:43;96060.06;;;16.48;100.00
55271;BME280;41132;47.162;9.470;2023-08-06T09:15:09;96063.91;;;16.33;100.00
55271;BME280;41132;47.162;9.470;2023-08-06T09:17:36;96062.47;;;16.23;100.00
55271;BME280;41132;47.162;9.470;2023-08-06T09:20:10;96072.88;;;16.25;100.00
55271;BME280;41132;47.162;9.470;2023-08-06T09:22:35;96087.56;;;16.27;100.00
55271;BME280;41132;47.162;9.470;2023-08-06T09:25:00;96094.06;;;16.18;100.00
55271;BME280;41132;47.162;9.470;2023-08-06T09:27:26;96088.75;;;16.18;100.00
55271;BME280;41132;47.162;9.470;2023-08-06T09:29:51;96088.59;;;16.26;100.00
55271;BME280;41132;47.162;9.470;2023-08-06T09:32:17;96089.94;;;16.02;100.00
55271;BME280;41132;47.162;9.470;2023-08-06T09:34:43;96083.19;;;15.93;100.00
55271;BME280;41132;47.162;9.470;2023-08-06T09:37:09;96095.75;;;15.78;93.02
55271;BME280;41132;47.162;9.470;2023-08-06T09:39:36;96106.19;;;15.86;100.00
55271;BME280;41132;47.162;9.470;2023-08-06T09:42:02;96108.41;;;15.82;100.00
55271;BME280;41132;47.162;9.470;2023-08-06T09:44:29;96111.63;;;15.78;100.00
55271;BME280;41132;47.162;9.470;2023-08-06T09:46:56;96098.94;;;15.66;100.00
55271;BME280;41132;47.162;9.470;2023-08-06T09:49:26;96101.06;;;15.78;100.00
55271;BME280;41132;47.162;9.470;2023-08-06T09:51:52;96102.66;;;15.72;100.00
55271;BME280;41132;47.162;9.470;2023-08-06T09:54:22;96102.63;;;15.65;100.00
55271;BME280;41132;47.162;9.470;2023-08-06T09:56:48;96107.91;;;15.65;100.00
55271;BME280;41132;47.162;9.470;2023-08-06T09:59:13;96102.41;;;15.60;100.00
55271;BME280;41132;47.162;9.470;2023-08-06T10:01:41;96100.72;;;15.53;100.00
55271;BME280;41132;47.162;9.470;2023-08-06T10:04:06;96113.94;;;15.53;100.00
55271;BME280;41132;47.162;9.470;2023-08-06T10:06:34;96110.19;;;15.34;100.00
55271;BME280;41132;47.162;9.470;2023-08-06T10:09:01;96086.22;;;15.07;100.00
55271;BME280;41132;47.162;9.470;2023-08-06T10:11:28;96088.00;;;15.00;100.00
55271;BME280;41132;47.162;9.470;2023-08-06T10:14:02;96103.28;;;15.04;100.00
55271;BME280;41132;47.162;9.470;2023-08-06T10:16:30;96109.28;;;14.92;96.19
55271;BME280;41132;47.162;9.470;2023-08-06T10:18:57;96102.25;;;15.06;98.39
55271;BME280;41132;47.162;9.470;2023-08-06T10:21:24;96109.25;;;15.13;94.50
55271;BME280;41132;47.162;9.470;2023-08-06T10:23:56;96116.00;;;15.22;98.80
55271;BME280;41132;47.162;9.470;2023-08-06T10:26:27;96109.91;;;15.22;100.00
55271;BME280;41132;47.162;9.470;2023-08-06T10:28:53;96081.66;;;15.22;100.00
55271;BME280;41132;47.162;9.470;2023-08-06T10:31:18;96091.09;;;15.38;100.00
55271;BME280;41132;47.162;9.470;2023-08-06T10:33:45;96092.00;;;15.59;100.00
55271;BME280;41132;47.162;9.470;2023-08-06T10:36:12;96104.53;;;15.78;100.00
55271;BME280;41132;47.162;9.470;2023-08-06T10:38:48;96109.00;;;15.78;100.00
55271;BME280;41132;47.162;9.470;2023-08-06T10:41:28;96098.47;;;15.91;100.00
55271;BME280;41132;47.162;9.470;2023-08-06T10:44:14;96096.50;;;16.13;100.00
55271;BME280;41132;47.162;9.470;2023-08-06T10:46:39;96104.84;;;16.10;94.89
55271;BME280;41132;47.162;9.470;2023-08-06T10:49:05;96106.84;;;16.01;100.00
55271;BME280;41132;47.162;9.470;2023-08-06T10:51:32;96106.69;;;16.23;100.00
55271;BME280;41132;47.162;9.470;2023-08-06T10:53:57;96098.75;;;16.23;100.00
55271;BME280;41132;47.162;9.470;2023-08-06T10:56:25;96091.84;;;16.22;99.47
55271;BME280;41132;47.162;9.470;2023-08-06T10:58:55;96093.06;;;16.19;100.00
55271;BME280;41132;47.162;9.470;2023-08-06T11:01:28;96111.81;;;16.31;100.00
55271;BME280;41132;47.162;9.470;2023-08-06T11:03:55;96100.78;;;16.21;100.00
55271;BME280;41132;47.162;9.470;2023-08-06T11:06:22;96115.44;;;16.30;100.00
55271;BME280;41132;47.162;9.470;2023-08-06T11:08:54;96108.94;;;16.39;100.00
55271;BME280;41132;47.162;9.470;2023-08-06T11:11:21;96104.47;;;16.26;100.00
55271;BME280;41132;47.162;9.470;2023-08-06T11:13:49;96118.50;;;16.27;100.00
55271;BME280;41132;47.162;9.470;2023-08-06T11:16:20;96126.41;;;16.14;100.00
55271;BME280;41132;47.162;9.470;2023-08-06T11:18:46;96141.47;;;16.06;100.00
55271;BME280;41132;47.162;9.470;2023-08-06T11:21:12;96134.53;;;15.99;100.00
55271;BME280;41132;47.162;9.470;2023-08-06T11:23:38;96130.84;;;15.93;100.00
55271;BME280;41132;47.162;9.470;2023-08-06T11:26:05;96121.28;;;15.92;100.00
55271;BME280;41132;47.162;9.470;2023-08-06T11:28:30;96117.75;;;15.72;100.00
55271;BME280;41132;47.162;9.470;2023-08-06T11:30:56;96140.13;;;15.76;100.00
55271;BME280;41132;47.162;9.470;2023-08-06T11:33:26;96136.59;;;15.69;100.00
55271;BME280;41132;47.162;9.470;2023-08-06T11:35:54;96122.53;;;15.61;100.00
55271;BME280;41132;47.162;9.470;2023-08-06T11:38:21;96128.03;;;15.66;100.00
55271;BME280;41132;47.162;9.470;2023-08-06T11:40:47;96140.75;;;15.78;100.00
55271;BME280;41132;47.162;9.470;2023-08-06T11:43:13;96141.56;;;15.78;100.00
55271;BME280;41132;47.162;9.470;2023-08-06T11:45:39;96143.63;;;15.90;100.00
55271;BME280;41132;47.162;9.470;2023-08-06T11:48:06;96140.78;;;15.84;100.00
55271;BME280;41132;47.162;9.470;2023-08-06T11:50:36;96136.94;;;15.94;100.00
55271;BME280;41132;47.162;9.470;2023-08-06T11:53:02;96117.56;;;15.86;100.00
55271;BME280;41132;47.162;9.470;2023-08-06T11:55:28;96136.13;;;15.93;100.00
55271;BME280;41132;47.162;9.470;2023-08-06T11:57:54;96134.69;;;15.91;100.00
55271;BME280;41132;47.162;9.470;2023-08-06T12:00:23;96122.47;;;15.90;100.00
55271;BME280;41132;47.162;9.470;2023-08-06T12:02:49;96143.63;;;15.83;100.00
55271;BME280;41132;47.162;9.470;2023-08-06T12:05:17;96177.63;;;15.86;100.00
55271;BME280;41132;47.162;9.470;2023-08-06T12:07:48;96155.28;;;15.95;100.00
55271;BME280;41132;47.162;9.470;2023-08-06T12:10:14;96146.44;;;15.75;100.00
55271;BME280;41132;47.162;9.470;2023-08-06T12:12:40;96164.38;;;15.79;100.00
55271;BME280;41132;47.162;9.470;2023-08-06T12:15:07;96146.97;;;15.63;100.00
55271;BME280;41132;47.162;9.470;2023-08-06T12:17:33;96138.25;;;15.70;100.00
55271;BME280;41132;47.162;9.470;2023-08-06T12:19:59;96163.78;;;15.84;100.00
55271;BME280;41132;47.162;9.470;2023-08-06T12:22:25;96168.81;;;15.72;100.00
55271;BME280;41132;47.162;9.470;2023-08-06T12:24:50;96160.06;;;15.72;100.00
55271;BME280;41132;47.162;9.470;2023-08-06T12:27:16;96163.59;;;15.85;100.00
55271;BME280;41132;47.162;9.470;2023-08-06T12:29:46;96169.06;;;15.84;100.00
55271;BME280;41132;47.162;9.470;2023-08-06T12:32:12;96169.06;;;15.84;100.00
55271;BME280;41132;47.162;9.470;2023-08-06T12:34:39;96139.56;;;15.87;100.00
55271;BME280;41132;47.162;9.470;2023-08-06T12:37:05;96161.75;;;15.86;100.00
55271;BME280;41132;47.162;9.470;2023-08-06T12:39:31;96170.94;;;15.90;100.00
55271;BME280;41132;47.162;9.470;2023-08-06T12:41:58;96170.69;;;15.85;100.00
55271;BME280;41132;47.162;9.470;2023-08-06T12:44:24;96174.94;;;15.79;100.00
55271;BME280;41132;47.162;9.470;2023-08-06T12:46:50;96158.88;;;15.81;100.00